Time;durP1;ratioP1;P1;durP2;ratioP2;P2;SDS_P1;SDS_P2;PMS_P1;PMS_P2;Temp;Humidity;BMP_temperature;BMP_pressure;BME280_temperature;BME280_humidity;BME280_pressure;Samples;Min_cycle;Max_cycle;Signal;HPM_P1;HPM_P2
2021/04/14 00:00:08;;;;;;;13.50;5.68;;;4.70;99.90;;;;;;2094454;28;20260;-71
2021/04/14 00:01:09;;;;;;;12.38;5.97;;;4.70;99.90;;;;;;2094606;28;20017;-70
2021/04/14 00:02:10;;;;;;;12.57;5.90;;;4.70;99.90;;;;;;2095070;28;20042;-70
2021/04/14 00:03:24;;;;;;;15.45;5.65;;;4.60;99.90;;;;;;2094705;28;20021;-71
2021/04/14 00:04:27;;;;;;;12.65;5.78;;;4.60;99.90;;;;;;2094323;28;20029;-71
2021/04/14 00:05:34;;;;;;;14.40;6.53;;;4.60;99.90;;;;;;2094121;28;20036;-70
2021/04/14 00:06:35;;;;;;;14.02;6.07;;;4.50;99.90;;;;;;2091671;28;20032;-70
2021/04/14 00:07:38;;;;;;;12.98;6.15;;;4.50;99.90;;;;;;2094244;28;20036;-70
2021/04/14 00:08:39;;;;;;;11.48;5.45;;;4.50;99.90;;;;;;2086669;28;20025;-70
2021/04/14 00:09:40;;;;;;;11.55;5.68;;;4.50;99.90;;;;;;2104016;28;20027;-70
2021/04/14 00:10:41;;;;;;;13.82;6.25;;;4.50;99.90;;;;;;2102308;28;20517;-70
2021/04/14 00:11:42;;;;;;;11.45;5.60;;;4.50;99.90;;;;;;2105126;28;20115;-70
2021/04/14 00:12:42;;;;;;;15.40;6.38;;;4.50;99.90;;;;;;2101034;28;20028;-70
2021/04/14 00:13:44;;;;;;;16.48;7.10;;;4.50;99.90;;;;;;2087587;28;22581;-70
2021/04/14 00:14:45;;;;;;;12.82;6.15;;;4.40;99.90;;;;;;2084935;28;20176;-70
2021/04/14 00:15:51;;;;;;;13.95;6.07;;;4.40;99.90;;;;;;2081249;28;20033;-70
2021/04/14 00:16:52;;;;;;;11.93;5.88;;;4.40;99.90;;;;;;2087930;28;20036;-70
2021/04/14 00:17:53;;;;;;;13.73;6.28;;;4.40;99.90;;;;;;2083462;28;20029;-69
2021/04/14 00:18:54;;;;;;;11.18;6.10;;;4.40;99.90;;;;;;2084637;28;20040;-70
2021/04/14 00:19:54;;;;;;;11.70;5.65;;;4.50;99.90;;;;;;2083566;28;20025;-69
2021/04/14 00:20:55;;;;;;;12.48;5.95;;;4.50;99.90;;;;;;2084154;28;20107;-69
2021/04/14 00:21:57;;;;;;;15.65;6.35;;;4.40;99.90;;;;;;2082581;28;20047;-70
2021/04/14 00:22:58;;;;;;;12.85;6.03;;;4.40;99.90;;;;;;2085631;28;20658;-70
2021/04/14 00:23:59;;;;;;;12.73;6.25;;;4.30;99.90;;;;;;2089735;28;20108;-70
2021/04/14 00:25:00;;;;;;;14.25;5.72;;;4.30;99.90;;;;;;2090031;28;20017;-70
2021/04/14 00:26:00;;;;;;;14.32;6.90;;;4.30;99.90;;;;;;2084512;28;20013;-70
2021/04/14 00:27:01;;;;;;;10.77;5.40;;;4.30;99.90;;;;;;2081258;28;20029;-70
2021/04/14 00:28:02;;;;;;;14.73;6.55;;;4.30;99.90;;;;;;2088269;28;20513;-70
2021/04/14 00:29:03;;;;;;;11.70;6.13;;;4.30;99.90;;;;;;2087427;28;20403;-69
2021/04/14 00:30:06;;;;;;;12.35;6.63;;;4.40;99.90;;;;;;2089590;28;20036;-70
2021/04/14 00:31:08;;;;;;;12.02;5.78;;;4.40;99.90;;;;;;2084737;28;20100;-70
2021/04/14 00:32:09;;;;;;;9.98;6.05;;;4.40;99.90;;;;;;2089004;28;20032;-70
2021/04/14 00:33:10;;;;;;;11.48;6.05;;;4.40;99.90;;;;;;2088841;28;20055;-70
2021/04/14 00:34:16;;;;;;;12.77;6.22;;;4.50;99.90;;;;;;2089301;28;20013;-70
2021/04/14 00:35:19;;;;;;;12.48;5.97;;;4.50;99.90;;;;;;2089945;28;20105;-69
2021/04/14 00:36:22;;;;;;;12.68;6.13;;;4.50;99.90;;;;;;2085983;28;20036;-70
2021/04/14 00:37:22;;;;;;;11.75;6.22;;;4.40;99.90;;;;;;2085921;28;20486;-69
2021/04/14 00:38:23;;;;;;;13.43;6.47;;;4.40;99.90;;;;;;2089987;28;20029;-69
2021/04/14 00:39:27;;;;;;;12.02;5.88;;;4.40;99.90;;;;;;2086153;28;20022;-69
2021/04/14 00:40:32;;;;;;;13.45;6.25;;;4.40;99.90;;;;;;2081541;28;20596;-70
2021/04/14 00:41:33;;;;;;;16.77;6.38;;;4.40;99.90;;;;;;2087154;28;20032;-70
2021/04/14 00:42:34;;;;;;;13.10;6.07;;;4.40;99.90;;;;;;2088902;28;20025;-69
2021/04/14 00:43:36;;;;;;;13.27;6.30;;;4.40;99.90;;;;;;2089808;28;20021;-70
2021/04/14 00:44:36;;;;;;;;;;;4.40;99.90;;;;;;2087085;28;20022;-69
2021/04/14 00:45:37;;;;;;;15.50;6.13;;;4.40;99.90;;;;;;2081279;28;19913;-70
2021/04/14 00:46:38;;;;;;;14.45;5.88;;;4.40;99.90;;;;;;2084817;28;20024;-69
2021/04/14 00:47:39;;;;;;;9.63;5.70;;;4.40;99.90;;;;;;2089007;28;20021;-69
2021/04/14 00:48:40;;;;;;;13.10;5.82;;;4.40;99.90;;;;;;2089833;28;20693;-69
2021/04/14 00:49:40;;;;;;;13.48;6.07;;;4.40;99.90;;;;;;2089447;28;20544;-70
2021/04/14 00:50:41;;;;;;;13.35;6.43;;;4.40;99.90;;;;;;2081701;28;21034;-70
2021/04/14 00:51:42;;;;;;;12.75;6.18;;;4.40;99.90;;;;;;2081995;28;20117;-70
2021/04/14 00:52:43;;;;;;;13.45;6.45;;;4.40;99.90;;;;;;2080721;28;20092;-70
2021/04/14 00:53:43;;;;;;;13.05;6.30;;;4.40;99.90;;;;;;2088987;28;20028;-70
2021/04/14 00:54:44;;;;;;;11.45;5.88;;;4.30;99.90;;;;;;2088892;28;20032;-70
2021/04/14 00:55:45;;;;;;;12.15;5.68;;;4.30;99.90;;;;;;2093985;28;20071;-70
2021/04/14 00:56:46;;;;;;;14.07;6.27;;;4.30;99.90;;;;;;2090983;28;20017;-70
2021/04/14 00:57:47;;;;;;;9.50;5.80;;;4.30;99.90;;;;;;2087327;28;20291;-70
2021/04/14 00:58:47;;;;;;;12.18;5.90;;;4.30;99.90;;;;;;2088552;28;20033;-69
2021/04/14 00:59:48;;;;;;;9.80;6.03;;;4.20;99.90;;;;;;2088282;28;20029;-70
2021/04/14 01:00:52;;;;;;;13.98;5.90;;;4.20;99.90;;;;;;2081286;28;20436;-70
2021/04/14 01:01:52;;;;;;;16.45;6.60;;;4.20;99.90;;;;;;2081061;28;20497;-71
2021/04/14 01:02:53;;;;;;;11.07;5.68;;;4.20;99.90;;;;;;2085952;28;20017;-70
2021/04/14 01:03:55;;;;;;;13.65;6.30;;;4.10;99.90;;;;;;2088908;28;20021;-70
2021/04/14 01:04:56;;;;;;;12.75;6.25;;;4.10;99.90;;;;;;2080656;28;20017;-70
2021/04/14 01:05:57;;;;;;;15.25;6.38;;;4.20;99.90;;;;;;2087127;28;20430;-70
2021/04/14 01:06:58;;;;;;;13.13;5.75;;;4.10;99.90;;;;;;2080838;28;20100;-70
2021/04/14 01:07:59;;;;;;;12.50;6.32;;;4.20;99.90;;;;;;2089060;28;20372;-70
2021/04/14 01:09:00;;;;;;;14.82;5.93;;;4.20;99.90;;;;;;2088664;28;20071;-70
2021/04/14 01:10:00;;;;;;;11.95;5.82;;;4.20;99.90;;;;;;2085494;28;20543;-70
2021/04/14 01:11:02;;;;;;;11.05;5.75;;;4.20;99.90;;;;;;2080026;28;20029;-70
2021/04/14 01:12:03;;;;;;;13.13;6.13;;;4.10;99.90;;;;;;2088504;28;20019;-70
2021/04/14 01:13:05;;;;;;;12.40;6.28;;;4.20;99.90;;;;;;2083764;28;20044;-70
2021/04/14 01:14:05;;;;;;;13.85;6.28;;;4.20;99.90;;;;;;2081037;28;20032;-70
2021/04/14 01:15:09;;;;;;;13.73;6.28;;;4.10;99.90;;;;;;2081177;28;20029;-70
2021/04/14 01:16:10;;;;;;;10.38;5.20;;;4.10;99.90;;;;;;2080553;28;20397;-70
2021/04/14 01:17:10;;;;;;;14.50;7.03;;;4.10;99.90;;;;;;2081244;28;20022;-70
2021/04/14 01:18:25;;;;;;;13.57;5.88;;;4.10;99.90;;;;;;2080145;28;20025;-69
2021/04/14 01:19:25;;;;;;;14.15;6.80;;;4.10;99.90;;;;;;2081999;28;20021;-70
2021/04/14 01:20:27;;;;;;;13.65;6.40;;;4.10;99.90;;;;;;2089561;28;20059;-69
2021/04/14 01:21:40;;;;;;;11.55;5.38;;;4.10;99.90;;;;;;2083843;28;20022;-69
2021/04/14 01:22:40;;;;;;;12.32;6.20;;;4.10;99.90;;;;;;2083581;28;20037;-69
2021/04/14 01:23:41;;;;;;;12.48;5.50;;;4.10;99.90;;;;;;2086042;28;20024;-70
2021/04/14 01:24:42;;;;;;;13.75;6.03;;;4.10;99.90;;;;;;2084951;28;20018;-70
2021/04/14 01:25:43;;;;;;;11.00;5.55;;;4.10;99.90;;;;;;2080715;28;20022;-70
2021/04/14 01:26:44;;;;;;;9.85;5.32;;;4.10;99.90;;;;;;2080940;28;20477;-70
2021/04/14 01:27:45;;;;;;;13.15;6.20;;;4.10;99.90;;;;;;2080954;28;20018;-69
2021/04/14 01:28:49;;;;;;;12.55;5.50;;;4.10;99.90;;;;;;2083725;28;20103;-69
2021/04/14 01:29:50;;;;;;;13.10;5.80;;;4.10;99.90;;;;;;2082332;28;20060;-70
2021/04/14 01:30:53;;;;;;;14.80;6.22;;;4.10;99.90;;;;;;2080152;28;20021;-69
2021/04/14 01:31:53;;;;;;;11.15;5.60;;;4.20;99.90;;;;;;2087256;28;20492;-70
2021/04/14 01:32:55;;;;;;;12.48;5.68;;;4.20;99.90;;;;;;2082810;28;20100;-70
2021/04/14 01:33:56;;;;;;;12.02;5.55;;;4.20;99.90;;;;;;2082842;28;20017;-69
2021/04/14 01:34:57;;;;;;;12.25;5.63;;;4.10;99.90;;;;;;2087291;28;20032;-70
2021/04/14 01:35:58;;;;;;;13.68;5.90;;;4.20;99.90;;;;;;2081089;28;20037;-72
2021/04/14 01:36:59;;;;;;;14.15;6.45;;;4.20;99.90;;;;;;2081009;28;20021;-69
2021/04/14 01:38:00;;;;;;;11.45;6.15;;;4.10;99.90;;;;;;2084340;28;20113;-70
2021/04/14 01:39:01;;;;;;;11.93;5.78;;;4.10;99.90;;;;;;2080518;28;20025;-70
2021/04/14 01:40:03;;;;;;;12.07;6.57;;;4.10;99.90;;;;;;2088329;28;20028;-69
2021/04/14 01:41:05;;;;;;;14.57;6.20;;;4.10;99.90;;;;;;2088881;28;20033;-69
2021/04/14 01:42:06;;;;;;;13.85;6.13;;;4.10;99.90;;;;;;2083651;28;20049;-70
2021/04/14 01:43:07;;;;;;;12.40;5.53;;;4.10;99.90;;;;;;2085377;28;20404;-70
2021/04/14 01:44:11;;;;;;;12.90;6.00;;;4.10;99.90;;;;;;2084772;28;20032;-69
2021/04/14 01:45:15;;;;;;;13.27;5.95;;;4.00;99.90;;;;;;2088858;28;20018;-69
2021/04/14 01:46:16;;;;;;;14.25;6.45;;;4.10;99.90;;;;;;2089035;28;20021;-69
2021/04/14 01:47:17;;;;;;;11.00;5.53;;;4.10;99.90;;;;;;2081925;28;20045;-71
2021/04/14 01:48:18;;;;;;;12.32;5.88;;;4.10;99.90;;;;;;2080424;28;20381;-69
2021/04/14 01:49:19;;;;;;;15.32;6.85;;;4.00;99.90;;;;;;2081716;28;20076;-70
2021/04/14 01:50:20;;;;;;;11.88;5.72;;;4.00;99.90;;;;;;2082688;28;20771;-70
2021/04/14 01:51:20;;;;;;;16.05;6.68;;;4.10;99.90;;;;;;2088157;28;20087;-70
2021/04/14 01:52:21;;;;;;;11.40;5.80;;;4.10;99.90;;;;;;2079839;28;20569;-70
2021/04/14 01:53:22;;;;;;;11.77;5.97;;;4.00;99.90;;;;;;2086991;28;20083;-70
2021/04/14 01:54:22;;;;;;;11.07;6.00;;;4.10;99.90;;;;;;2079125;28;20052;-70
2021/04/14 01:55:25;;;;;;;14.15;6.00;;;4.00;99.90;;;;;;2086513;28;20029;-70
2021/04/14 01:56:26;;;;;;;14.43;6.18;;;4.10;99.90;;;;;;2088023;28;20021;-71
2021/04/14 01:57:26;;;;;;;12.20;6.65;;;4.00;99.90;;;;;;2094532;28;20028;-69
2021/04/14 01:58:29;;;;;;;12.80;6.60;;;4.00;99.90;;;;;;2091553;28;20029;-70
2021/04/14 01:59:30;;;;;;;13.23;6.55;;;3.90;99.90;;;;;;2079688;28;20091;-70
2021/04/14 02:00:38;;;;;;;17.50;6.13;;;3.90;99.90;;;;;;2085762;28;20078;-70
2021/04/14 02:01:40;;;;;;;15.35;6.80;;;3.90;99.90;;;;;;2079798;28;20076;-70
2021/04/14 02:02:42;;;;;;;10.68;6.45;;;3.80;99.90;;;;;;2079692;28;20070;-70
2021/04/14 02:03:42;;;;;;;14.25;6.75;;;3.80;99.90;;;;;;2072325;28;20034;-71
2021/04/14 02:04:43;;;;;;;13.13;6.47;;;3.80;99.90;;;;;;2079412;28;20019;-70
2021/04/14 02:05:44;;;;;;;13.48;6.72;;;3.80;99.90;;;;;;2079988;28;20028;-70
2021/04/14 02:06:45;;;;;;;16.73;6.63;;;3.80;99.90;;;;;;2082835;28;20022;-69
2021/04/14 02:07:45;;;;;;;11.73;6.30;;;3.80;99.90;;;;;;2086223;28;20018;-70
2021/04/14 02:08:46;;;;;;;14.10;6.57;;;3.80;99.90;;;;;;2088553;28;20114;-70
2021/04/14 02:09:47;;;;;;;12.63;6.00;;;3.80;99.90;;;;;;2086528;28;20100;-69
2021/04/14 02:10:48;;;;;;;13.88;7.32;;;3.80;99.90;;;;;;2087019;28;20652;-70
2021/04/14 02:11:48;;;;;;;9.48;6.10;;;3.80;99.90;;;;;;2082103;28;20492;-70
2021/04/14 02:12:49;;;;;;;13.32;7.07;;;3.80;99.90;;;;;;2087735;28;20025;-70
2021/04/14 02:13:50;;;;;;;16.08;6.65;;;3.80;99.90;;;;;;2088462;28;20029;-70
2021/04/14 02:14:50;;;;;;;15.05;6.70;;;3.70;99.90;;;;;;2081843;28;20589;-70
2021/04/14 02:15:52;;;;;;;11.82;6.35;;;3.70;99.90;;;;;;2079624;28;20030;-70
2021/04/14 02:16:53;;;;;;;13.70;6.95;;;3.70;99.90;;;;;;2080557;28;20151;-70
2021/04/14 02:17:55;;;;;;;13.68;6.75;;;3.80;99.90;;;;;;2079472;28;20030;-70
2021/04/14 02:18:56;;;;;;;13.60;6.63;;;3.70;99.90;;;;;;2079709;28;20029;-70
2021/04/14 02:19:57;;;;;;;13.95;6.40;;;3.70;99.90;;;;;;2082182;28;20461;-70
2021/04/14 02:20:59;;;;;;;16.05;7.10;;;3.70;99.90;;;;;;2080799;28;20037;-70
2021/04/14 02:22:00;;;;;;;;;;;3.70;99.90;;;;;;2089207;28;20521;-70
2021/04/14 02:23:26;;;;;;;13.82;6.32;;;3.70;99.90;;;;;;2082536;28;19912;-70
2021/04/14 02:24:26;;;;;;;13.60;7.18;;;3.70;99.90;;;;;;2087251;28;20477;-70
2021/04/14 02:25:27;;;;;;;16.60;7.03;;;3.70;99.90;;;;;;2086568;28;20036;-69
2021/04/14 02:26:28;;;;;;;14.45;7.07;;;3.70;99.90;;;;;;2080436;28;20032;-70
2021/04/14 02:27:29;;;;;;;12.20;6.85;;;3.70;99.90;;;;;;2079653;28;20040;-69
2021/04/14 02:28:30;;;;;;;13.82;7.10;;;3.70;99.90;;;;;;2080301;28;20065;-69
2021/04/14 02:29:30;;;;;;;16.42;7.03;;;3.70;99.90;;;;;;2085709;28;20052;-70
2021/04/14 02:30:31;;;;;;;16.67;7.72;;;3.70;99.90;;;;;;2088192;28;20017;-70
2021/04/14 02:31:32;;;;;;;13.65;6.97;;;3.70;99.90;;;;;;2088686;28;20745;-70
2021/04/14 02:32:34;;;;;;;15.55;7.07;;;3.70;99.90;;;;;;2084183;28;20048;-70
2021/04/14 02:33:35;;;;;;;12.57;7.03;;;3.70;99.90;;;;;;2088245;28;20565;-70
2021/04/14 02:34:36;;;;;;;14.60;7.10;;;3.70;99.90;;;;;;2081672;28;20029;-69
2021/04/14 02:35:37;;;;;;;17.33;6.97;;;3.70;99.90;;;;;;2080398;28;20021;-70
2021/04/14 02:36:39;;;;;;;14.70;6.97;;;3.70;99.90;;;;;;2088550;28;20025;-70
2021/04/14 02:37:40;;;;;;;14.18;7.30;;;3.70;99.90;;;;;;2085254;28;20413;-70
2021/04/14 02:38:40;;;;;;;13.02;6.80;;;3.70;99.90;;;;;;2080594;28;20029;-70
2021/04/14 02:39:41;;;;;;;13.63;7.47;;;3.70;99.90;;;;;;2083993;28;20566;-70
2021/04/14 02:40:42;;;;;;;14.25;6.45;;;3.70;99.90;;;;;;2078747;28;20573;-70
2021/04/14 02:41:44;;;;;;;15.13;6.78;;;3.70;99.90;;;;;;2079896;28;20112;-70
2021/04/14 02:42:45;;;;;;;14.98;6.55;;;3.70;99.90;;;;;;2085565;28;20527;-70
2021/04/14 02:43:49;;;;;;;16.65;7.10;;;3.60;99.90;;;;;;2080136;28;20022;-70
2021/04/14 02:44:50;;;;;;;13.48;8.10;;;3.60;99.90;;;;;;2085295;28;20017;-70
2021/04/14 02:45:51;;;;;;;14.77;7.10;;;3.60;99.90;;;;;;2088572;28;20025;-70
2021/04/14 02:46:53;;;;;;;12.23;6.85;;;3.60;99.90;;;;;;2080902;28;20446;-69
2021/04/14 02:47:53;;;;;;;15.57;7.63;;;3.60;99.90;;;;;;2080690;28;20022;-69
2021/04/14 02:48:54;;;;;;;18.77;7.28;;;3.60;99.90;;;;;;2083905;28;20071;-69
2021/04/14 02:49:55;;;;;;;15.20;7.65;;;3.60;99.90;;;;;;2087636;28;20048;-70
2021/04/14 02:50:56;;;;;;;13.02;6.95;;;3.60;99.90;;;;;;2083328;28;20024;-69
2021/04/14 02:51:56;;;;;;;14.43;7.25;;;3.60;99.90;;;;;;2080160;28;20057;-69
2021/04/14 02:52:57;;;;;;;13.52;6.80;;;3.50;99.90;;;;;;2080395;28;20018;-69
2021/04/14 02:53:58;;;;;;;11.00;6.28;;;3.50;99.90;;;;;;2080329;28;20102;-69
2021/04/14 02:54:58;;;;;;;14.13;7.03;;;3.50;99.90;;;;;;2080039;28;20049;-69
2021/04/14 02:55:59;;;;;;;12.55;7.10;;;3.50;99.90;;;;;;2080054;28;20029;-69
2021/04/14 02:57:00;;;;;;;14.07;6.80;;;3.50;99.90;;;;;;2087240;28;20009;-69
2021/04/14 02:58:01;;;;;;;13.23;7.25;;;3.50;99.90;;;;;;2084780;28;20625;-69
2021/04/14 02:59:02;;;;;;;14.30;6.68;;;3.50;99.90;;;;;;2088642;28;20025;-68
2021/04/14 03:00:07;;;;;;;12.65;6.55;;;3.40;99.90;;;;;;2082992;28;20044;-69
2021/04/14 03:01:08;;;;;;;13.75;6.57;;;3.40;99.90;;;;;;2079897;28;20053;-69
2021/04/14 03:02:09;;;;;;;12.35;6.65;;;3.40;99.90;;;;;;2080350;28;20075;-69
2021/04/14 03:03:09;;;;;;;15.18;7.10;;;3.40;99.90;;;;;;2088047;28;20021;-69
2021/04/14 03:04:10;;;;;;;11.93;6.88;;;3.40;99.90;;;;;;2082996;28;20029;-69
2021/04/14 03:05:13;;;;;;;14.00;6.78;;;3.40;99.90;;;;;;2082597;28;20037;-70
2021/04/14 03:06:14;;;;;;;19.30;7.07;;;3.50;99.90;;;;;;2080200;28;20477;-70
2021/04/14 03:07:14;;;;;;;13.30;7.38;;;3.40;99.90;;;;;;2080463;28;20033;-70
2021/04/14 03:08:15;;;;;;;12.48;7.00;;;3.40;99.90;;;;;;2079810;28;20032;-69
2021/04/14 03:09:16;;;;;;;12.35;6.68;;;3.40;99.90;;;;;;2082233;28;20592;-69
2021/04/14 03:10:17;;;;;;;13.63;7.20;;;3.40;99.90;;;;;;2082609;28;20045;-70
2021/04/14 03:11:18;;;;;;;12.48;6.03;;;3.40;99.90;;;;;;2083760;28;20032;-69
2021/04/14 03:12:19;;;;;;;13.63;6.80;;;3.40;99.90;;;;;;2080381;28;20414;-69
2021/04/14 03:13:19;;;;;;;12.07;6.47;;;3.40;99.90;;;;;;2079238;28;20291;-69
2021/04/14 03:14:20;;;;;;;18.20;7.68;;;3.40;99.90;;;;;;2079852;28;20022;-69
2021/04/14 03:15:28;;;;;;;14.75;6.90;;;3.40;99.90;;;;;;2087257;28;20063;-69
2021/04/14 03:16:29;;;;;;;15.45;7.05;;;3.40;99.90;;;;;;2083046;28;20018;-70
2021/04/14 03:17:29;;;;;;;11.65;6.63;;;3.40;99.90;;;;;;2080242;28;20026;-69
2021/04/14 03:18:30;;;;;;;12.18;6.95;;;3.30;99.90;;;;;;2088218;28;20032;-69
2021/04/14 03:19:31;;;;;;;14.23;7.10;;;3.30;99.90;;;;;;2084467;28;20049;-70
2021/04/14 03:20:31;;;;;;;11.80;6.55;;;3.30;99.90;;;;;;2080485;28;20096;-69
2021/04/14 03:21:32;;;;;;;12.05;7.10;;;3.30;99.90;;;;;;2079831;28;20404;-69
2021/04/14 03:22:34;;;;;;;13.57;6.90;;;3.30;99.90;;;;;;2080525;28;20024;-69
2021/04/14 03:23:35;;;;;;;12.57;7.00;;;3.30;99.90;;;;;;2087753;28;20431;-69
2021/04/14 03:24:35;;;;;;;15.02;7.60;;;3.30;99.90;;;;;;2081095;28;20026;-69
2021/04/14 03:25:36;;;;;;;12.27;6.80;;;3.30;99.90;;;;;;2081603;28;20022;-69
2021/04/14 03:26:37;;;;;;;15.85;7.78;;;3.30;99.90;;;;;;2087855;28;20028;-69
2021/04/14 03:27:38;;;;;;;16.05;7.72;;;3.30;99.90;;;;;;2087537;28;20025;-70
2021/04/14 03:28:39;;;;;;;16.15;7.78;;;3.20;99.90;;;;;;2086727;28;20014;-69
2021/04/14 03:29:39;;;;;;;16.85;6.95;;;3.20;99.90;;;;;;2085704;28;20747;-70
2021/04/14 03:30:41;;;;;;;12.52;7.05;;;3.20;99.90;;;;;;2086700;28;20021;-69
2021/04/14 03:31:42;;;;;;;13.13;6.82;;;3.20;99.90;;;;;;2071916;28;20032;-69
2021/04/14 03:32:43;;;;;;;12.40;6.90;;;3.20;99.90;;;;;;2079091;28;20512;-70
2021/04/14 03:33:43;;;;;;;16.17;7.32;;;3.10;99.90;;;;;;2080561;28;20488;-69
2021/04/14 03:34:44;;;;;;;15.55;7.70;;;3.10;99.90;;;;;;2079884;28;20026;-69
2021/04/14 03:35:45;;;;;;;15.15;7.57;;;3.10;99.90;;;;;;2081064;28;20029;-69
2021/04/14 03:36:45;;;;;;;12.32;6.82;;;3.10;99.90;;;;;;2083281;28;20076;-69
2021/04/14 03:37:46;;;;;;;12.70;6.70;;;3.10;99.90;;;;;;2085900;28;20361;-70
2021/04/14 03:38:48;;;;;;;14.50;7.75;;;3.10;99.90;;;;;;2083263;28;20451;-69
2021/04/14 03:39:49;;;;;;;14.35;7.35;;;3.00;99.90;;;;;;2080660;28;20068;-69
2021/04/14 03:40:49;;;;;;;14.75;7.20;;;3.00;99.90;;;;;;2085787;28;20029;-70
2021/04/14 03:41:50;;;;;;;12.45;6.93;;;3.00;99.90;;;;;;2079334;28;20031;-70
2021/04/14 03:42:52;;;;;;;14.93;8.10;;;2.90;99.90;;;;;;2083532;28;20022;-69
2021/04/14 03:43:54;;;;;;;13.80;7.65;;;2.80;99.90;;;;;;2080465;28;20021;-69
2021/04/14 03:44:57;;;;;;;14.38;7.53;;;2.80;99.90;;;;;;2086602;28;20112;-70
2021/04/14 03:45:59;;;;;;;13.10;7.60;;;2.70;99.90;;;;;;2086239;28;20029;-69
2021/04/14 03:47:00;;;;;;;14.23;7.05;;;2.60;99.90;;;;;;2081898;28;20021;-69
2021/04/14 03:48:01;;;;;;;12.13;7.20;;;2.60;99.90;;;;;;2082895;28;20026;-69
2021/04/14 03:49:02;;;;;;;15.40;8.10;;;2.60;99.90;;;;;;2081736;28;20492;-69
2021/04/14 03:50:04;;;;;;;13.65;7.55;;;2.60;99.90;;;;;;2081659;28;20018;-69
2021/04/14 03:51:05;;;;;;;16.13;7.68;;;2.60;99.90;;;;;;2082915;28;20021;-70
2021/04/14 03:52:06;;;;;;;16.45;7.65;;;2.60;99.90;;;;;;2088187;28;20041;-69
2021/04/14 03:53:14;;;;;;;13.45;7.28;;;2.60;99.90;;;;;;2088616;28;20021;-69
2021/04/14 03:54:15;;;;;;;13.57;7.15;;;2.50;99.90;;;;;;2083438;28;20060;-69
2021/04/14 03:55:19;;;;;;;13.82;7.72;;;2.50;99.90;;;;;;2082795;28;20428;-70
2021/04/14 03:56:20;;;;;;;12.80;6.90;;;2.40;99.90;;;;;;2092530;28;20017;-69
2021/04/14 03:57:21;;;;;;;10.23;7.00;;;2.40;99.90;;;;;;2084185;28;20025;-70
2021/04/14 03:58:22;;;;;;;14.15;7.68;;;2.30;99.90;;;;;;2082289;28;20037;-71
2021/04/14 03:59:23;;;;;;;11.43;6.22;;;2.30;99.90;;;;;;2081720;28;20033;-70
2021/04/14 04:00:25;;;;;;;11.63;6.90;;;2.20;99.90;;;;;;2088567;28;20493;-69
2021/04/14 04:01:27;;;;;;;;;;;2.10;99.90;;;;;;2081764;28;20481;-70
2021/04/14 04:02:27;;;;;;;14.85;7.40;;;2.10;99.90;;;;;;2082906;28;20471;-70
2021/04/14 04:03:28;;;;;;;15.13;7.85;;;2.10;99.90;;;;;;2090148;28;20040;-70
2021/04/14 04:04:29;;;;;;;17.08;8.18;;;2.10;99.90;;;;;;2089820;28;20500;-70
2021/04/14 04:05:30;;;;;;;20.50;8.98;;;2.10;99.90;;;;;;2090249;28;20115;-69
2021/04/14 04:06:30;;;;;;;15.98;7.78;;;2.10;99.90;;;;;;2083712;28;20037;-70
2021/04/14 04:07:31;;;;;;;16.50;7.93;;;2.20;99.90;;;;;;2088678;28;20126;-70
2021/04/14 04:08:32;;;;;;;15.18;7.07;;;2.20;99.90;;;;;;2087651;28;20025;-70
2021/04/14 04:09:33;;;;;;;16.48;7.97;;;2.20;99.90;;;;;;2081584;28;20480;-69
2021/04/14 04:10:33;;;;;;;15.40;8.07;;;2.30;99.90;;;;;;2081657;28;20121;-69
2021/04/14 04:11:34;;;;;;;14.30;8.73;;;2.30;99.90;;;;;;2082792;28;20036;-70
2021/04/14 04:12:35;;;;;;;16.33;8.25;;;2.30;99.90;;;;;;2088113;28;20040;-70
2021/04/14 04:13:36;;;;;;;15.45;8.73;;;2.40;99.90;;;;;;2081797;28;20021;-69
2021/04/14 04:14:46;;;;;;;14.05;6.57;;;2.40;99.90;;;;;;2085748;28;20052;-70
2021/04/14 04:15:47;;;;;;;16.13;7.57;;;2.40;99.90;;;;;;2081213;28;20061;-69
2021/04/14 04:16:48;;;;;;;14.32;8.07;;;2.50;99.90;;;;;;2081341;28;20025;-70
2021/04/14 04:17:48;;;;;;;18.95;8.05;;;2.50;99.90;;;;;;2081214;28;20076;-70
2021/04/14 04:18:50;;;;;;;13.00;7.38;;;2.60;99.90;;;;;;2081824;28;20021;-70
2021/04/14 04:19:51;;;;;;;14.10;8.13;;;2.60;99.90;;;;;;2083008;28;20671;-69
2021/04/14 04:20:52;;;;;;;16.05;8.02;;;2.60;99.90;;;;;;2081542;28;20029;-70
2021/04/14 04:21:53;;;;;;;20.95;9.15;;;2.50;99.90;;;;;;2087591;28;20405;-70
2021/04/14 04:22:53;;;;;;;16.65;8.38;;;2.60;99.90;;;;;;2087486;28;20022;-70
2021/04/14 04:23:54;;;;;;;17.20;7.53;;;2.60;99.90;;;;;;2082236;28;20497;-70
2021/04/14 04:24:55;;;;;;;14.23;7.65;;;2.60;99.90;;;;;;2085687;28;20558;-69
2021/04/14 04:25:55;;;;;;;15.02;7.85;;;2.60;99.90;;;;;;2084916;28;20022;-70
2021/04/14 04:26:56;;;;;;;13.38;7.57;;;2.60;99.90;;;;;;2081099;28;20021;-70
2021/04/14 04:27:57;;;;;;;12.00;7.65;;;2.60;99.90;;;;;;2080620;28;20108;-70
2021/04/14 04:28:58;;;;;;;13.30;7.93;;;2.60;99.90;;;;;;2082146;28;20013;-70
2021/04/14 04:29:59;;;;;;;16.35;7.78;;;2.60;99.90;;;;;;2088053;28;20033;-70
2021/04/14 04:30:59;;;;;;;11.95;7.47;;;2.60;99.90;;;;;;2085068;28;20513;-70
2021/04/14 04:32:00;;;;;;;16.55;8.00;;;2.60;99.90;;;;;;2083785;28;20025;-69
2021/04/14 04:33:01;;;;;;;19.77;8.13;;;2.70;99.90;;;;;;2087785;28;20048;-71
2021/04/14 04:34:02;;;;;;;18.40;8.00;;;2.70;99.90;;;;;;2088546;28;20074;-70
2021/04/14 04:35:05;;;;;;;14.35;7.93;;;2.70;99.90;;;;;;2081617;28;20091;-70
2021/04/14 04:36:06;;;;;;;16.08;8.52;;;2.70;99.90;;;;;;2085114;28;20024;-70
2021/04/14 04:37:07;;;;;;;19.02;8.20;;;2.70;99.90;;;;;;2089839;28;20566;-70
2021/04/14 04:38:08;;;;;;;15.68;7.80;;;2.70;99.90;;;;;;2087811;28;20118;-69
2021/04/14 04:39:08;;;;;;;13.93;7.88;;;2.70;99.90;;;;;;2087636;28;20074;-73
2021/04/14 04:40:10;;;;;;;14.13;7.80;;;2.70;99.90;;;;;;2081185;28;20083;-70
2021/04/14 04:41:11;;;;;;;17.30;8.18;;;2.60;99.90;;;;;;2084363;28;20507;-70
2021/04/14 04:42:11;;;;;;;15.43;7.60;;;2.60;99.90;;;;;;2081558;28;20029;-70
2021/04/14 04:43:12;;;;;;;17.27;8.05;;;2.60;99.90;;;;;;2087430;28;20364;-69
2021/04/14 04:44:14;;;;;;;15.77;8.50;;;2.60;99.90;;;;;;2088479;28;20013;-69
2021/04/14 04:45:18;;;;;;;14.93;8.10;;;2.50;99.90;;;;;;2080733;28;20048;-70
2021/04/14 04:46:18;;;;;;;12.93;7.80;;;2.60;99.90;;;;;;2081784;28;20034;-70
2021/04/14 04:47:19;;;;;;;22.67;7.80;;;2.50;99.90;;;;;;2087831;28;20049;-69
2021/04/14 04:48:20;;;;;;;16.00;8.02;;;2.50;99.90;;;;;;2086643;28;20421;-69
2021/04/14 04:49:20;;;;;;;14.57;7.78;;;2.50;99.90;;;;;;2081199;28;20022;-70
2021/04/14 04:50:26;;;;;;;13.98;8.20;;;2.50;99.90;;;;;;2088570;28;20099;-70
2021/04/14 04:51:27;;;;;;;13.40;7.22;;;2.50;99.90;;;;;;2080780;28;20014;-70
2021/04/14 04:52:28;;;;;;;18.73;7.90;;;2.50;99.90;;;;;;2081560;28;20022;-70
2021/04/14 04:53:29;;;;;;;18.33;7.85;;;2.50;99.90;;;;;;2088577;28;20025;-70
2021/04/14 04:54:31;;;;;;;14.60;7.72;;;2.50;99.90;;;;;;2087413;28;20021;-69
2021/04/14 04:55:32;;;;;;;11.18;7.03;;;2.50;99.90;;;;;;2082165;28;20031;-70
2021/04/14 04:56:33;;;;;;;18.48;8.15;;;2.60;99.90;;;;;;2082584;28;20091;-69
2021/04/14 04:57:34;;;;;;;14.85;8.10;;;2.50;99.90;;;;;;2086352;28;20079;-70
2021/04/14 04:58:35;;;;;;;15.60;8.27;;;2.50;99.90;;;;;;2081190;28;20025;-70
2021/04/14 04:59:35;;;;;;;16.08;8.75;;;2.50;99.90;;;;;;2080206;28;20057;-69
2021/04/14 05:00:37;;;;;;;15.07;8.20;;;2.40;99.90;;;;;;2081152;28;20025;-70
2021/04/14 05:01:38;;;;;;;17.23;8.52;;;2.40;99.90;;;;;;2089341;28;20094;-70
2021/04/14 05:02:39;;;;;;;17.30;8.63;;;2.40;99.90;;;;;;2088915;28;20088;-70
2021/04/14 05:03:39;;;;;;;15.55;8.10;;;2.40;99.90;;;;;;2089443;28;20025;-70
2021/04/14 05:04:41;;;;;;;16.50;8.32;;;2.40;99.90;;;;;;2083985;28;20021;-70
2021/04/14 05:05:43;;;;;;;14.73;6.60;;;2.40;99.90;;;;;;2085091;28;20037;-69
2021/04/14 05:06:43;;;;;;;13.02;7.90;;;2.40;99.90;;;;;;2079446;28;20386;-70
2021/04/14 05:07:44;;;;;;;16.27;8.32;;;2.40;99.90;;;;;;2073748;28;20022;-70
2021/04/14 05:08:45;;;;;;;17.50;8.48;;;2.30;99.90;;;;;;2080640;28;20018;-69
2021/04/14 05:09:46;;;;;;;14.25;8.00;;;2.40;99.90;;;;;;2085147;28;20021;-70
2021/04/14 05:10:46;;;;;;;14.50;8.65;;;2.40;99.90;;;;;;2089511;28;20029;-69
2021/04/14 05:11:48;;;;;;;15.70;8.02;;;2.40;99.90;;;;;;2088525;28;20567;-69
2021/04/14 05:12:50;;;;;;;13.15;8.15;;;2.40;99.90;;;;;;2086616;28;20717;-69
2021/04/14 05:13:51;;;;;;;15.77;8.20;;;2.40;99.90;;;;;;2086886;28;20048;-70
2021/04/14 05:14:52;;;;;;;15.18;8.57;;;2.40;99.90;;;;;;2088761;28;20518;-70
2021/04/14 05:15:53;;;;;;;14.98;8.43;;;2.40;99.90;;;;;;2088480;28;20025;-69
2021/04/14 05:16:54;;;;;;;16.60;8.18;;;2.40;99.90;;;;;;2088318;28;20469;-70
2021/04/14 05:17:55;;;;;;;15.82;8.10;;;2.40;99.90;;;;;;2088555;28;20104;-70
2021/04/14 05:18:55;;;;;;;17.60;8.70;;;2.40;99.90;;;;;;2089481;28;20032;-70
2021/04/14 05:19:56;;;;;;;15.30;7.95;;;2.50;99.90;;;;;;2084309;28;20021;-70